Kenneth, Minnesota
Current Conditions -  °F | °C
As of 1:14 AM on Sunday 26 Oct 2014 (Local Time) from KLYV Reporting Station
Clear Clear  
Wind Chill:   Ceiling: Unl
Heat Index:   Visibility: 10mi
Dew Point:   Wind: 3mph
Humidity: 76%   Direction: 20°NNE
Pressure: 30.04"   Gusts: NA
Location:  43.75°N, 96.07°W
Report Text: KLYV 260614Z AUTO 02003KT 10SM CLR 05/01 A3004 RMK AO2
Loading
Personal Weather Stations






























Interactive Weather Map
Tropical Storm Tracking
New forecast layout! Learn more

10-Day Weather Forecast

Advertisements
Track Severe Weather on mobile